createdAt,value
2017-10-15T00:00:44.851Z,16.60
2017-10-15T00:01:44.845Z,16.54
2017-10-15T00:02:44.846Z,16.55
2017-10-15T00:03:44.842Z,16.51
2017-10-15T00:04:44.839Z,16.52
2017-10-15T00:05:44.839Z,16.52
2017-10-15T00:06:44.837Z,16.47
2017-10-15T00:07:44.835Z,16.47
2017-10-15T00:08:44.832Z,16.45
2017-10-15T00:09:44.844Z,16.42
2017-10-15T00:10:44.832Z,16.40
2017-10-15T00:11:44.832Z,16.41
2017-10-15T00:12:44.828Z,16.37
2017-10-15T00:13:44.825Z,16.36
2017-10-15T00:14:44.827Z,16.36
2017-10-15T00:15:44.824Z,16.33
2017-10-15T00:16:44.821Z,16.36
2017-10-15T00:17:44.816Z,16.29
2017-10-15T00:18:44.813Z,16.26
2017-10-15T00:19:44.813Z,16.29
2017-10-15T00:20:44.810Z,16.33
2017-10-15T00:21:44.810Z,16.29
2017-10-15T00:22:44.809Z,16.27
2017-10-15T00:23:44.806Z,16.26
2017-10-15T00:24:44.804Z,16.29
2017-10-15T00:25:44.804Z,16.30
2017-10-15T00:26:44.805Z,16.23
2017-10-15T00:27:44.801Z,16.22
2017-10-15T00:28:44.803Z,16.25
2017-10-15T00:29:44.794Z,16.08
2017-10-15T00:30:44.793Z,16.22
2017-10-15T00:31:44.791Z,16.13
2017-10-15T00:32:44.789Z,16.10
2017-10-15T00:33:44.791Z,16.11
2017-10-15T00:34:44.793Z,16.14
2017-10-15T00:35:44.786Z,16.08
2017-10-15T00:36:44.785Z,16.03
2017-10-15T00:37:44.783Z,16.11
2017-10-15T00:38:44.781Z,15.99
2017-10-15T00:39:44.780Z,16.03
2017-10-15T00:40:44.777Z,16.01
2017-10-15T00:41:44.772Z,16.04
2017-10-15T00:42:44.769Z,16.04
2017-10-15T00:43:44.767Z,15.96
2017-10-15T00:44:44.765Z,16.03
2017-10-15T00:45:44.764Z,16.03
2017-10-15T00:46:44.763Z,16.06
2017-10-15T00:47:44.759Z,16.11
2017-10-15T00:48:44.757Z,16.10
2017-10-15T00:49:44.759Z,16.10
2017-10-15T00:50:44.758Z,16.01
2017-10-15T00:51:44.755Z,16.07
2017-10-15T00:52:44.752Z,16.08
2017-10-15T00:53:44.751Z,16.06
2017-10-15T00:54:44.750Z,16.03
2017-10-15T00:55:44.747Z,16.01
2017-10-15T00:56:44.745Z,16.11
2017-10-15T00:57:44.740Z,16.18
2017-10-15T00:58:44.737Z,16.10
2017-10-15T00:59:44.746Z,16.13
2017-10-15T01:00:44.731Z,16.10
2017-10-15T01:01:44.729Z,16.07
2017-10-15T01:02:44.728Z,16.04
2017-10-15T01:03:44.727Z,16.13
2017-10-15T01:04:44.724Z,16.04
2017-10-15T01:05:44.728Z,16.01
2017-10-15T01:06:44.725Z,16.01
2017-10-15T01:07:44.724Z,16.01
2017-10-15T01:08:44.719Z,15.99
2017-10-15T01:09:44.718Z,16.07
2017-10-15T01:10:44.717Z,16.03
2017-10-15T01:11:44.714Z,16.03
2017-10-15T01:12:44.712Z,16.08
2017-10-15T01:13:44.708Z,16.03
2017-10-15T01:14:44.704Z,15.99
2017-10-15T01:15:44.701Z,15.99
2017-10-15T01:16:44.698Z,16.03
2017-10-15T01:17:44.697Z,15.93
2017-10-15T01:18:44.696Z,15.99
2017-10-15T01:19:44.693Z,15.95
2017-10-15T01:20:44.689Z,15.86
2017-10-15T01:21:44.692Z,15.93
2017-10-15T01:22:44.691Z,15.95
2017-10-15T01:23:44.688Z,15.85
2017-10-15T01:24:44.686Z,15.96
2017-10-15T01:25:44.684Z,15.99
2017-10-15T01:26:44.682Z,15.93
2017-10-15T01:27:44.680Z,15.88
2017-10-15T01:28:44.676Z,15.80
2017-10-15T01:29:44.669Z,15.92
2017-10-15T01:30:44.670Z,15.85
2017-10-15T01:31:44.675Z,15.86
2017-10-15T01:32:44.663Z,15.84
2017-10-15T01:33:44.672Z,15.85
2017-10-15T01:34:44.667Z,15.84
2017-10-15T01:35:44.661Z,15.81
2017-10-15T01:36:44.659Z,15.89
2017-10-15T01:37:44.653Z,15.84
2017-10-15T01:38:44.651Z,15.73
2017-10-15T01:39:44.649Z,15.78
2017-10-15T01:40:44.645Z,15.74
2017-10-15T01:41:44.643Z,15.84
2017-10-15T01:42:44.642Z,15.77
2017-10-15T01:43:44.640Z,15.76
2017-10-15T01:44:44.636Z,15.77
2017-10-15T01:45:44.638Z,15.81
2017-10-15T01:46:44.637Z,15.77
2017-10-15T01:47:44.635Z,15.80
2017-10-15T01:48:44.632Z,15.81
2017-10-15T01:49:44.630Z,15.80
2017-10-15T01:50:44.628Z,15.88
2017-10-15T01:51:44.626Z,15.84
2017-10-15T01:52:44.622Z,15.86
2017-10-15T01:53:44.618Z,15.78
2017-10-15T01:54:44.614Z,15.77
2017-10-15T01:55:44.612Z,15.86
2017-10-15T01:56:44.609Z,15.78
2017-10-15T01:57:44.608Z,15.85
2017-10-15T01:58:44.604Z,15.78
2017-10-15T01:59:44.608Z,15.84
2017-10-15T02:00:44.600Z,15.78
2017-10-15T02:01:44.602Z,15.77
2017-10-15T02:02:44.601Z,15.70
2017-10-15T02:03:44.598Z,15.74
2017-10-15T02:04:44.601Z,15.80
2017-10-15T02:05:44.593Z,15.70
2017-10-15T02:06:44.592Z,15.71
2017-10-15T02:07:44.589Z,15.78
2017-10-15T02:08:44.584Z,15.67
2017-10-15T02:09:44.578Z,15.76
2017-10-15T02:10:44.577Z,15.77
2017-10-15T02:11:44.575Z,15.74
2017-10-15T02:12:44.572Z,15.73
2017-10-15T02:13:44.582Z,15.74
2017-10-15T02:14:44.567Z,15.73
2017-10-15T02:15:44.565Z,15.74
2017-10-15T02:16:44.561Z,15.76
2017-10-15T02:17:44.564Z,15.73
2017-10-15T02:18:44.563Z,15.76
2017-10-15T02:19:44.561Z,15.67
2017-10-15T02:20:44.556Z,15.73
2017-10-15T02:21:44.554Z,15.71
2017-10-15T02:22:44.553Z,15.68
2017-10-15T02:23:44.551Z,15.71
2017-10-15T02:24:44.547Z,15.77
2017-10-15T02:25:44.542Z,15.73
2017-10-15T02:26:44.537Z,15.73
2017-10-15T02:27:44.538Z,15.71
2017-10-15T02:28:44.534Z,15.73
2017-10-15T02:29:44.531Z,15.64
2017-10-15T02:30:44.530Z,15.68
2017-10-15T02:31:44.526Z,15.74
2017-10-15T02:32:44.525Z,15.67
2017-10-15T02:33:44.527Z,15.58
2017-10-15T02:34:44.525Z,15.62
2017-10-15T02:35:44.520Z,15.56
2017-10-15T02:36:44.519Z,15.64
2017-10-15T02:37:44.512Z,15.66
2017-10-15T02:38:44.511Z,15.60
2017-10-15T02:39:44.507Z,15.52
2017-10-15T02:40:44.507Z,15.55
2017-10-15T02:41:44.509Z,15.49
2017-10-15T02:42:44.505Z,15.51
2017-10-15T02:43:44.503Z,15.46
2017-10-15T02:44:44.498Z,15.41
2017-10-15T02:45:44.496Z,15.53
2017-10-15T02:46:44.495Z,15.35
2017-10-15T02:47:44.493Z,15.49
2017-10-15T02:48:44.489Z,15.38
2017-10-15T02:49:44.484Z,15.44
2017-10-15T02:50:44.481Z,15.38
2017-10-15T02:51:44.481Z,15.28
2017-10-15T02:52:44.474Z,15.33
2017-10-15T02:53:44.473Z,15.35
2017-10-15T02:54:44.470Z,15.30
2017-10-15T02:55:44.470Z,15.33
2017-10-15T02:56:44.466Z,15.25
2017-10-15T02:57:44.467Z,15.27
2017-10-15T02:58:44.464Z,15.23
2017-10-15T02:59:44.463Z,15.16
2017-10-15T03:00:44.459Z,15.18
2017-10-15T03:01:44.456Z,15.19
2017-10-15T03:02:44.455Z,15.16
2017-10-15T03:03:44.454Z,15.19
2017-10-15T03:04:44.450Z,15.15
2017-10-15T03:05:44.443Z,15.15
2017-10-15T03:06:44.441Z,15.16
2017-10-15T03:07:44.439Z,15.13
2017-10-15T03:08:44.436Z,15.16
2017-10-15T03:09:44.433Z,15.18
2017-10-15T03:10:44.430Z,15.15
2017-10-15T03:11:44.429Z,15.07
2017-10-15T03:12:44.433Z,15.12
2017-10-15T03:13:44.428Z,15.13
2017-10-15T03:14:44.425Z,15.12
2017-10-15T03:15:44.422Z,15.18
2017-10-15T03:16:44.419Z,15.00
2017-10-15T03:17:44.417Z,15.00
2017-10-15T03:18:44.414Z,15.03
2017-10-15T03:19:44.417Z,15.07
2017-10-15T03:20:44.407Z,15.07
2017-10-15T03:21:44.402Z,15.01
2017-10-15T03:22:44.399Z,14.94
2017-10-15T03:23:44.397Z,14.95
2017-10-15T03:24:44.393Z,14.87
2017-10-15T03:25:44.392Z,14.93
2017-10-15T03:26:44.389Z,14.95
2017-10-15T03:27:44.385Z,14.91
2017-10-15T03:28:44.383Z,14.93
2017-10-15T03:29:44.385Z,14.87
2017-10-15T03:30:44.383Z,14.91
2017-10-15T03:31:44.380Z,14.86
2017-10-15T03:32:44.377Z,14.86
2017-10-15T03:33:44.374Z,14.93
2017-10-15T03:34:44.370Z,14.91
2017-10-15T03:35:44.367Z,14.91
2017-10-15T03:36:44.366Z,14.93
2017-10-15T03:37:44.360Z,14.86
2017-10-15T03:38:44.356Z,14.85
2017-10-15T03:39:44.353Z,14.82
2017-10-15T03:40:44.349Z,14.86
2017-10-15T03:41:44.352Z,14.85
2017-10-15T03:42:44.354Z,14.80
2017-10-15T03:43:44.346Z,14.79
2017-10-15T03:44:44.343Z,14.80
2017-10-15T03:45:44.337Z,14.71
2017-10-15T03:46:44.334Z,14.69
2017-10-15T03:47:44.344Z,14.79
2017-10-15T03:48:44.330Z,14.85
2017-10-15T03:49:44.325Z,14.82
2017-10-15T03:50:44.322Z,14.71
2017-10-15T03:51:44.334Z,14.59
2017-10-15T03:52:44.317Z,14.63
2017-10-15T03:53:44.318Z,14.64
2017-10-15T03:54:44.314Z,14.69
2017-10-15T03:55:44.312Z,14.66
2017-10-15T03:56:44.309Z,14.52
2017-10-15T03:57:44.308Z,14.54
2017-10-15T03:58:44.305Z,14.59
2017-10-15T03:59:44.301Z,14.54
2017-10-15T04:00:44.298Z,14.59
2017-10-15T04:01:44.294Z,14.46
2017-10-15T04:02:44.288Z,14.45
2017-10-15T04:03:44.286Z,14.42
2017-10-15T04:04:44.282Z,14.44
2017-10-15T04:05:44.279Z,14.44
2017-10-15T04:06:44.277Z,14.41
2017-10-15T04:07:44.275Z,14.44
2017-10-15T04:08:44.270Z,14.36
2017-10-15T04:09:44.273Z,14.31
2017-10-15T04:10:44.269Z,14.30
2017-10-15T04:11:44.267Z,14.30
2017-10-15T04:12:44.264Z,14.30
2017-10-15T04:13:44.260Z,14.36
2017-10-15T04:14:44.259Z,14.34
2017-10-15T04:15:44.255Z,14.29
2017-10-15T04:16:44.250Z,14.29
2017-10-15T04:17:44.245Z,14.23
2017-10-15T04:18:44.241Z,14.21
2017-10-15T04:19:44.239Z,14.11
2017-10-15T04:20:44.235Z,14.12
2017-10-15T04:21:44.234Z,14.12
2017-10-15T04:22:44.229Z,14.13
2017-10-15T04:23:44.227Z,14.06
2017-10-15T04:24:44.224Z,14.12
2017-10-15T04:25:44.226Z,14.11
2017-10-15T04:26:44.222Z,14.09
2017-10-15T04:27:44.219Z,14.05
2017-10-15T04:28:44.216Z,14.05
2017-10-15T04:29:44.214Z,14.09
2017-10-15T04:30:44.210Z,14.01
2017-10-15T04:31:44.207Z,14.02
2017-10-15T04:32:44.205Z,14.01
2017-10-15T04:33:44.199Z,14.24
2017-10-15T04:34:44.194Z,14.21
2017-10-15T04:35:44.192Z,14.26
2017-10-15T04:36:44.187Z,14.29
2017-10-15T04:37:44.184Z,14.29
2017-10-15T04:38:44.183Z,14.34
2017-10-15T04:39:44.180Z,14.30
2017-10-15T04:40:44.176Z,14.30
2017-10-15T04:41:44.177Z,14.31
2017-10-15T04:42:44.174Z,14.30
2017-10-15T04:43:44.172Z,14.30
2017-10-15T04:44:44.168Z,14.29
2017-10-15T04:45:44.161Z,14.39
2017-10-15T04:46:44.159Z,14.42
2017-10-15T04:47:44.155Z,14.46
2017-10-15T04:48:44.152Z,14.44
2017-10-15T04:49:44.154Z,14.44
2017-10-15T04:50:44.150Z,14.36
2017-10-15T04:51:44.147Z,14.35
2017-10-15T04:52:44.143Z,14.30
2017-10-15T04:53:44.140Z,14.44
2017-10-15T04:54:44.138Z,14.45
2017-10-15T04:55:44.135Z,14.36
2017-10-15T04:56:44.133Z,14.34
2017-10-15T04:57:44.126Z,14.45
2017-10-15T04:58:44.122Z,14.35
2017-10-15T04:59:44.119Z,14.41
2017-10-15T05:00:44.116Z,14.42
2017-10-15T05:01:44.113Z,14.36
2017-10-15T05:02:44.110Z,14.34
2017-10-15T05:03:44.108Z,14.38
2017-10-15T05:04:44.103Z,14.38
2017-10-15T05:05:44.117Z,14.24
2017-10-15T05:06:44.106Z,14.29
2017-10-15T05:07:44.110Z,14.38
2017-10-15T05:08:44.097Z,14.44
2017-10-15T05:09:44.092Z,14.57
2017-10-15T05:10:44.090Z,14.57
2017-10-15T05:11:44.087Z,14.52
2017-10-15T05:12:44.083Z,14.57
2017-10-15T05:13:44.077Z,14.56
2017-10-15T05:14:44.074Z,14.59
2017-10-15T05:15:44.071Z,14.60
2017-10-15T05:16:44.069Z,14.52
2017-10-15T05:17:44.066Z,14.53
2017-10-15T05:18:44.062Z,14.57
2017-10-15T05:19:44.060Z,14.59
2017-10-15T05:20:44.056Z,14.53
2017-10-15T05:21:44.057Z,14.60
2017-10-15T05:22:44.057Z,14.64
2017-10-15T05:23:44.053Z,14.57
2017-10-15T05:24:44.050Z,14.61
2017-10-15T05:25:44.046Z,14.67
2017-10-15T05:26:44.042Z,14.69
2017-10-15T05:27:44.041Z,14.64
2017-10-15T05:28:44.039Z,14.67
2017-10-15T05:29:44.029Z,14.69
2017-10-15T05:30:44.034Z,14.72
2017-10-15T05:31:44.025Z,14.71
2017-10-15T05:32:44.024Z,14.82
2017-10-15T05:33:44.017Z,14.83
2017-10-15T05:34:44.015Z,14.79
2017-10-15T05:35:44.012Z,14.78
2017-10-15T05:36:44.009Z,14.86
2017-10-15T05:37:44.009Z,14.87
2017-10-15T05:38:44.008Z,14.97
2017-10-15T05:39:44.005Z,14.98
2017-10-15T05:40:44.001Z,15.15
2017-10-15T05:41:44.000Z,15.04
2017-10-15T05:42:43.995Z,15.03
2017-10-15T05:43:43.992Z,15.04
2017-10-15T05:44:43.988Z,15.18
2017-10-15T05:45:43.985Z,15.13
2017-10-15T05:46:43.979Z,15.11
2017-10-15T05:47:43.977Z,15.12
2017-10-15T05:48:43.973Z,15.22
2017-10-15T05:49:43.976Z,15.20
2017-10-15T05:50:43.972Z,15.25
2017-10-15T05:51:43.970Z,15.20
2017-10-15T05:52:43.965Z,15.25
2017-10-15T05:53:43.959Z,15.27
2017-10-15T05:54:43.956Z,15.33
2017-10-15T05:55:43.954Z,15.25
2017-10-15T05:56:43.951Z,15.38
2017-10-15T05:57:43.947Z,15.35
2017-10-15T05:58:43.945Z,15.37
2017-10-15T05:59:43.942Z,15.35
2017-10-15T06:00:43.938Z,15.34
2017-10-15T06:01:43.939Z,15.37
2017-10-15T06:02:43.937Z,15.34
2017-10-15T06:03:43.933Z,15.35
2017-10-15T06:04:43.932Z,15.22
2017-10-15T06:05:43.928Z,15.37
2017-10-15T06:06:43.924Z,15.31
2017-10-15T06:07:43.923Z,15.37
2017-10-15T06:08:43.920Z,15.31
2017-10-15T06:09:43.913Z,15.37
2017-10-15T06:10:43.911Z,15.40
2017-10-15T06:11:43.921Z,15.44
2017-10-15T06:12:43.903Z,15.35
2017-10-15T06:13:43.899Z,15.43
2017-10-15T06:14:43.898Z,15.40
2017-10-15T06:15:43.896Z,15.37
2017-10-15T06:16:43.893Z,15.51
2017-10-15T06:17:43.895Z,15.40
2017-10-15T06:18:43.890Z,15.48
2017-10-15T06:19:43.889Z,15.53
2017-10-15T06:20:43.884Z,15.52
2017-10-15T06:21:43.884Z,15.71
2017-10-15T06:22:43.880Z,15.93
2017-10-15T06:23:43.877Z,16.41
2017-10-15T06:24:43.875Z,16.78
2017-10-15T06:25:43.867Z,17.24
2017-10-15T06:26:43.869Z,17.74
2017-10-15T06:27:43.865Z,18.07
2017-10-15T06:28:43.864Z,18.47
2017-10-15T06:29:43.858Z,18.68
2017-10-15T06:30:43.862Z,19.01
2017-10-15T06:31:43.854Z,18.96
2017-10-15T06:32:43.852Z,18.69
2017-10-15T06:33:43.857Z,18.96
2017-10-15T06:34:43.854Z,19.30
2017-10-15T06:35:43.854Z,19.42
2017-10-15T06:36:43.852Z,19.86
2017-10-15T06:37:43.851Z,20.15
2017-10-15T06:38:43.851Z,20.04
2017-10-15T06:39:43.851Z,19.55
2017-10-15T06:40:43.849Z,19.97
2017-10-15T06:41:43.875Z,19.83
2017-10-15T06:42:43.846Z,19.76
2017-10-15T06:43:43.846Z,20.34
2017-10-15T06:44:43.847Z,20.31
2017-10-15T06:45:43.849Z,19.87
2017-10-15T06:46:43.849Z,19.79
2017-10-15T06:47:43.850Z,19.57
2017-10-15T06:48:43.850Z,19.98
2017-10-15T06:49:43.857Z,20.19
2017-10-15T06:50:43.856Z,20.73
2017-10-15T06:51:43.862Z,20.48
2017-10-15T06:52:43.858Z,21.09
2017-10-15T06:53:43.856Z,21.61
2017-10-15T06:54:43.859Z,21.73
2017-10-15T06:55:43.860Z,22.39
2017-10-15T06:56:43.862Z,22.57
2017-10-15T06:57:43.869Z,23.11
2017-10-15T06:58:43.872Z,23.21
2017-10-15T06:59:43.875Z,22.96
2017-10-15T07:00:43.876Z,23.54
2017-10-15T07:01:43.887Z,23.50
2017-10-15T07:02:43.882Z,22.99
2017-10-15T07:03:43.887Z,22.85
2017-10-15T07:04:43.894Z,23.11
2017-10-15T07:05:43.889Z,22.63
2017-10-15T07:06:43.893Z,22.56
2017-10-15T07:07:43.898Z,23.03
2017-10-15T07:08:43.902Z,22.64
2017-10-15T07:09:43.905Z,22.42
2017-10-15T07:10:43.909Z,22.46
2017-10-15T07:11:43.914Z,22.33
2017-10-15T07:12:43.917Z,22.54
2017-10-15T07:13:43.926Z,22.64
2017-10-15T07:14:43.930Z,22.26
2017-10-15T07:15:43.936Z,22.26
2017-10-15T07:16:43.941Z,22.91
2017-10-15T07:17:43.945Z,22.85
2017-10-15T07:18:43.952Z,23.26
2017-10-15T07:19:43.957Z,22.70
2017-10-15T07:20:43.962Z,22.44
2017-10-15T07:21:43.963Z,22.33
2017-10-15T07:22:43.968Z,22.64
2017-10-15T07:23:43.975Z,23.34
2017-10-15T07:24:43.980Z,23.21
2017-10-15T07:25:43.987Z,23.06
2017-10-15T07:26:43.990Z,22.82
2017-10-15T07:27:43.998Z,22.89
2017-10-15T07:28:44.004Z,22.44
2017-10-15T07:29:44.017Z,23.23
2017-10-15T07:30:44.019Z,23.87
2017-10-15T07:31:44.028Z,24.02
2017-10-15T07:32:44.032Z,23.60
2017-10-15T07:33:44.039Z,23.60
2017-10-15T07:34:44.045Z,23.39
2017-10-15T07:35:44.052Z,23.77
2017-10-15T07:36:44.058Z,23.59
2017-10-15T07:37:44.061Z,23.37
2017-10-15T07:38:44.068Z,23.39
2017-10-15T07:39:44.075Z,23.69
2017-10-15T07:40:44.081Z,23.97
2017-10-15T07:41:44.089Z,24.68
2017-10-15T07:42:44.094Z,23.89
2017-10-15T07:43:44.103Z,23.96
2017-10-15T07:44:44.109Z,23.75
2017-10-15T07:45:44.124Z,23.14
2017-10-15T07:46:44.128Z,23.49
2017-10-15T07:47:44.137Z,23.37
2017-10-15T07:48:44.144Z,23.54
2017-10-15T07:49:44.153Z,22.72
2017-10-15T07:50:44.159Z,22.70
2017-10-15T07:51:44.167Z,22.84
2017-10-15T07:52:44.173Z,22.79
2017-10-15T07:53:44.177Z,23.68
2017-10-15T07:54:44.185Z,23.87
2017-10-15T07:55:44.192Z,23.54
2017-10-15T07:56:44.199Z,23.19
2017-10-15T07:57:44.209Z,23.60
2017-10-15T07:58:44.217Z,23.90
2017-10-15T07:59:44.225Z,23.92
2017-10-15T08:00:44.233Z,23.35
2017-10-15T08:01:44.248Z,23.47
2017-10-15T08:02:44.256Z,22.64
2017-10-15T08:03:44.261Z,22.97
2017-10-15T08:04:44.268Z,23.44
2017-10-15T08:05:44.275Z,23.53
2017-10-15T08:06:44.286Z,23.74
2017-10-15T08:07:44.294Z,23.97
2017-10-15T08:08:44.301Z,24.31
2017-10-15T08:09:44.305Z,23.97
2017-10-15T08:10:44.313Z,23.72
2017-10-15T08:11:44.322Z,24.00
2017-10-15T08:12:44.330Z,23.77
2017-10-15T08:13:44.338Z,23.44
2017-10-15T08:14:44.347Z,23.54
2017-10-15T08:15:44.355Z,23.54
2017-10-15T08:16:44.365Z,23.67
2017-10-15T08:17:44.378Z,24.08
2017-10-15T08:18:44.386Z,23.74
2017-10-15T08:19:44.396Z,23.97
2017-10-15T08:20:44.401Z,24.15
2017-10-15T08:21:44.412Z,24.34
2017-10-15T08:22:44.421Z,25.56
2017-10-15T08:23:44.430Z,25.96
2017-10-15T08:24:44.441Z,25.51
2017-10-15T08:25:44.442Z,25.39
2017-10-15T08:26:44.453Z,25.20
2017-10-15T08:27:44.463Z,24.29
2017-10-15T08:28:44.470Z,24.21
2017-10-15T08:29:44.479Z,24.84
2017-10-15T08:30:44.491Z,25.08
2017-10-15T08:31:44.499Z,23.93
2017-10-15T08:32:44.510Z,23.11
2017-10-15T08:33:44.522Z,23.41
2017-10-15T08:34:44.532Z,24.00
2017-10-15T08:35:44.541Z,24.37
2017-10-15T08:36:44.549Z,24.55
2017-10-15T08:37:44.560Z,25.07
2017-10-15T08:38:44.570Z,24.16
2017-10-15T08:39:44.579Z,24.00
2017-10-15T08:40:44.588Z,24.82
2017-10-15T08:41:44.595Z,25.24
2017-10-15T08:42:44.612Z,25.90
2017-10-15T08:43:44.613Z,25.53
2017-10-15T08:44:44.621Z,26.12
2017-10-15T08:45:44.632Z,27.06
2017-10-15T08:46:44.642Z,27.31
2017-10-15T08:47:44.653Z,25.93
2017-10-15T08:48:44.661Z,26.06
2017-10-15T08:49:44.675Z,26.94
2017-10-15T08:50:44.685Z,26.23
2017-10-15T08:51:44.696Z,25.63
2017-10-15T08:52:44.705Z,25.53
2017-10-15T08:53:44.721Z,26.60
2017-10-15T08:54:44.726Z,25.76
2017-10-15T08:55:44.735Z,25.36
2017-10-15T08:56:44.746Z,25.91
2017-10-15T08:57:44.752Z,26.35
2017-10-15T08:58:44.764Z,25.90
2017-10-15T08:59:44.774Z,26.53
2017-10-15T09:00:44.782Z,25.56
2017-10-15T09:01:44.798Z,25.41
2017-10-15T09:02:44.807Z,25.34
2017-10-15T09:03:44.821Z,25.16
2017-10-15T09:04:44.829Z,26.42
2017-10-15T09:05:44.836Z,27.25
2017-10-15T09:06:44.849Z,27.24
2017-10-15T09:07:44.858Z,28.77
2017-10-15T09:08:44.869Z,28.58
2017-10-15T09:09:44.879Z,28.14
2017-10-15T09:10:44.889Z,27.49
2017-10-15T09:11:44.903Z,28.65
2017-10-15T09:12:44.912Z,29.29
2017-10-15T09:13:44.928Z,28.74
2017-10-15T09:14:44.940Z,27.45
2017-10-15T09:15:44.951Z,28.20
2017-10-15T09:16:44.963Z,28.97
2017-10-15T09:17:44.975Z,29.71
2017-10-15T09:18:44.986Z,28.77
2017-10-15T09:19:44.997Z,29.48
2017-10-15T09:20:45.009Z,27.78
2017-10-15T09:21:45.017Z,26.79
2017-10-15T09:22:45.029Z,26.97
2017-10-15T09:23:45.046Z,27.68
2017-10-15T09:24:45.053Z,27.98
2017-10-15T09:25:45.066Z,28.23
2017-10-15T09:26:45.077Z,27.01
2017-10-15T09:27:45.089Z,27.28
2017-10-15T09:28:45.101Z,26.42
2017-10-15T09:29:45.117Z,26.49
2017-10-15T09:30:45.129Z,25.96
2017-10-15T09:31:45.141Z,26.08
2017-10-15T09:32:45.152Z,25.61
2017-10-15T09:33:45.166Z,25.75
2017-10-15T09:34:45.177Z,26.04
2017-10-15T09:35:45.190Z,26.46
2017-10-15T09:36:45.201Z,25.91
2017-10-15T09:37:45.210Z,25.36
2017-10-15T09:38:45.221Z,25.12
2017-10-15T09:39:45.234Z,26.86
2017-10-15T09:40:45.244Z,26.87
2017-10-15T09:41:45.260Z,28.23
2017-10-15T09:42:45.269Z,28.35
2017-10-15T09:43:45.280Z,27.90
2017-10-15T09:44:45.290Z,28.33
2017-10-15T09:45:45.309Z,29.00
2017-10-15T09:46:45.320Z,28.98
2017-10-15T09:47:45.331Z,28.46
2017-10-15T09:48:45.343Z,28.73
2017-10-15T09:49:45.353Z,29.66
2017-10-15T09:50:45.366Z,29.55
2017-10-15T09:51:45.378Z,28.14
2017-10-15T09:52:45.390Z,27.95
2017-10-15T09:53:45.404Z,27.18
2017-10-15T09:54:45.410Z,27.61
2017-10-15T09:55:45.423Z,28.64
2017-10-15T09:56:45.433Z,28.03
2017-10-15T09:57:45.447Z,29.14
2017-10-15T09:58:45.459Z,29.82
2017-10-15T09:59:45.471Z,29.86
2017-10-15T10:00:45.483Z,29.44
2017-10-15T10:01:45.499Z,29.44
2017-10-15T10:02:45.513Z,29.00
2017-10-15T10:03:45.525Z,28.57
2017-10-15T10:04:45.538Z,28.11
2017-10-15T10:05:45.546Z,28.64
2017-10-15T10:06:45.558Z,29.49
2017-10-15T10:07:45.571Z,29.23
2017-10-15T10:08:45.584Z,28.73
2017-10-15T10:09:45.604Z,29.10
2017-10-15T10:10:45.614Z,30.30
2017-10-15T10:11:45.627Z,30.40
2017-10-15T10:12:45.638Z,29.78
2017-10-15T10:13:45.652Z,28.95
2017-10-15T10:14:45.667Z,28.98
2017-10-15T10:15:45.679Z,28.95
2017-10-15T10:16:45.691Z,28.15
2017-10-15T10:17:45.699Z,27.40
2017-10-15T10:18:45.717Z,26.96
2017-10-15T10:19:45.729Z,27.33
2017-10-15T10:20:45.742Z,28.06
2017-10-15T10:21:45.752Z,27.03
2017-10-15T10:22:45.765Z,27.35
2017-10-15T10:23:45.778Z,27.11
2017-10-15T10:24:45.790Z,27.98
2017-10-15T10:25:45.807Z,28.43
2017-10-15T10:26:45.821Z,28.80
2017-10-15T10:27:45.834Z,27.95
2017-10-15T10:28:45.844Z,28.18
2017-10-15T10:29:45.864Z,26.78
2017-10-15T10:30:45.874Z,27.96
2017-10-15T10:31:45.884Z,28.25
2017-10-15T10:32:45.895Z,28.51
2017-10-15T10:33:45.904Z,28.17
2017-10-15T10:34:45.917Z,28.11
2017-10-15T10:35:45.930Z,28.36
2017-10-15T10:36:45.941Z,27.43
2017-10-15T10:37:45.954Z,28.73
2017-10-15T10:38:45.965Z,29.94
2017-10-15T10:39:45.978Z,29.49
2017-10-15T10:40:45.990Z,29.81
2017-10-15T10:41:46.008Z,29.94
2017-10-15T10:42:46.019Z,30.16
2017-10-15T10:43:46.032Z,29.95
2017-10-15T10:44:46.044Z,29.52
2017-10-15T10:45:46.058Z,30.37
2017-10-15T10:46:46.068Z,30.28
2017-10-15T10:47:46.081Z,29.82
2017-10-15T10:48:46.092Z,29.86
2017-10-15T10:49:46.102Z,30.22
2017-10-15T10:50:46.114Z,30.78
2017-10-15T10:51:46.128Z,31.09
2017-10-15T10:52:46.137Z,31.67
2017-10-15T10:53:46.152Z,31.99
2017-10-15T10:54:46.164Z,31.62
2017-10-15T10:55:46.175Z,31.32
2017-10-15T10:56:46.187Z,30.34
2017-10-15T10:57:46.202Z,30.42
2017-10-15T10:58:46.219Z,31.04
2017-10-15T10:59:46.229Z,30.30
2017-10-15T11:00:46.240Z,30.42
2017-10-15T11:01:46.252Z,30.97
2017-10-15T11:02:46.270Z,29.67
2017-10-15T11:03:46.278Z,29.54
2017-10-15T11:04:46.291Z,28.77
2017-10-15T11:05:46.299Z,29.42
2017-10-15T11:06:46.311Z,30.03
2017-10-15T11:07:46.324Z,29.35
2017-10-15T11:08:46.349Z,29.58
2017-10-15T11:09:46.351Z,29.52
2017-10-15T11:10:46.362Z,29.47
2017-10-15T11:11:46.376Z,28.03
2017-10-15T11:12:46.386Z,27.52
2017-10-15T11:13:46.393Z,27.91
2017-10-15T11:14:46.406Z,27.30
2017-10-15T11:15:46.417Z,26.47
2017-10-15T11:16:46.427Z,26.51
2017-10-15T11:17:46.438Z,26.72
2017-10-15T11:18:46.449Z,26.75
2017-10-15T11:19:46.460Z,26.81
2017-10-15T11:20:46.471Z,26.35
2017-10-15T11:21:46.484Z,26.53
2017-10-15T11:22:46.493Z,26.57
2017-10-15T11:23:46.506Z,26.42
2017-10-15T11:24:46.511Z,26.50
2017-10-15T11:25:46.520Z,26.27
2017-10-15T11:26:46.527Z,25.93
2017-10-15T11:27:46.540Z,25.85
2017-10-15T11:28:46.544Z,25.54
2017-10-15T11:29:46.547Z,25.71
2017-10-15T11:30:46.556Z,25.63
2017-10-15T11:31:46.563Z,25.44
2017-10-15T11:32:46.570Z,25.42
2017-10-15T11:33:46.579Z,25.44
2017-10-15T11:34:46.584Z,25.51
2017-10-15T11:35:46.592Z,25.23
2017-10-15T11:36:46.599Z,25.17
2017-10-15T11:37:46.608Z,25.29
2017-10-15T11:38:46.616Z,25.49
2017-10-15T11:39:46.622Z,25.61
2017-10-15T11:40:46.629Z,25.56
2017-10-15T11:41:46.635Z,25.57
2017-10-15T11:42:46.639Z,25.46
2017-10-15T11:43:46.647Z,25.35
2017-10-15T11:44:46.651Z,25.05
2017-10-15T11:45:46.655Z,25.01
2017-10-15T11:46:46.760Z,25.14
2017-10-15T11:47:46.665Z,25.30
2017-10-15T11:48:46.670Z,25.42
2017-10-15T11:49:46.676Z,25.56
2017-10-15T11:50:46.683Z,25.64
2017-10-15T11:51:46.688Z,25.41
2017-10-15T11:52:46.697Z,25.09
2017-10-15T11:53:46.700Z,25.17
2017-10-15T11:54:46.707Z,25.19
2017-10-15T11:55:46.712Z,25.05
2017-10-15T11:56:46.716Z,25.02
2017-10-15T11:57:46.722Z,25.17
2017-10-15T11:58:46.727Z,25.05
2017-10-15T11:59:46.732Z,24.71
2017-10-15T12:00:46.735Z,24.79
2017-10-15T12:01:46.736Z,24.74
2017-10-15T12:02:46.741Z,24.90
2017-10-15T12:03:46.746Z,25.05
2017-10-15T12:04:46.750Z,24.94
2017-10-15T12:05:46.756Z,25.01
2017-10-15T12:06:46.761Z,25.01
2017-10-15T12:07:46.765Z,25.17
2017-10-15T12:08:46.768Z,25.23
2017-10-15T12:09:46.779Z,25.16
2017-10-15T12:10:46.786Z,25.14
2017-10-15T12:11:46.786Z,25.17
2017-10-15T12:12:46.791Z,24.99
2017-10-15T12:13:46.791Z,24.74
2017-10-15T12:14:46.796Z,24.70
2017-10-15T12:15:46.799Z,24.77
2017-10-15T12:16:46.804Z,24.67
2017-10-15T12:17:46.814Z,24.34
2017-10-15T12:18:46.818Z,24.55
2017-10-15T12:19:46.821Z,24.60
2017-10-15T12:20:46.824Z,24.60
2017-10-15T12:21:46.828Z,24.66
2017-10-15T12:22:46.832Z,24.64
2017-10-15T12:23:46.837Z,24.63
2017-10-15T12:24:46.840Z,24.51
2017-10-15T12:25:46.841Z,24.56
2017-10-15T12:26:46.844Z,24.61
2017-10-15T12:27:46.849Z,24.71
2017-10-15T12:28:46.851Z,24.82
2017-10-15T12:29:46.856Z,24.93
2017-10-15T12:30:46.860Z,24.90
2017-10-15T12:31:46.864Z,24.83
2017-10-15T12:32:46.868Z,24.60
2017-10-15T12:33:46.877Z,24.51
2017-10-15T12:34:46.880Z,24.36
2017-10-15T12:35:46.883Z,24.37
2017-10-15T12:36:46.888Z,24.29
2017-10-15T12:37:46.907Z,24.15
2017-10-15T12:38:46.895Z,24.24
2017-10-15T12:39:46.899Z,24.12
2017-10-15T12:40:46.901Z,24.18
2017-10-15T12:41:46.903Z,24.15
2017-10-15T12:42:46.905Z,24.16
2017-10-15T12:43:46.909Z,24.14
2017-10-15T12:44:46.912Z,24.18
2017-10-15T12:45:46.916Z,24.34
2017-10-15T12:46:46.919Z,24.37
2017-10-15T12:47:46.923Z,24.33
2017-10-15T12:48:46.926Z,24.36
2017-10-15T12:49:46.934Z,24.42
2017-10-15T12:50:46.939Z,24.36
2017-10-15T12:51:46.943Z,24.33
2017-10-15T12:52:46.944Z,24.30